Time;durP1;ratioP1;P1;durP2;ratioP2;P2;SDS_P1;SDS_P2;PMS_P1;PMS_P2;Temp;Humidity;BMP_temperature;BMP_pressure;BME280_temperature;BME280_humidity;BME280_pressure;Samples;Min_cycle;Max_cycle;Signal;HPM_P1;HPM_P2
2021/06/28 00:01:57;;;;;;;;;;;22.60;99.90;;;;;;5026778;28;20639;-70
2021/06/28 00:04:24;;;;;;;;;;;22.50;99.90;;;;;;5042529;28;19933;-72
2021/06/28 00:06:51;;;;;;;;;;;22.50;99.90;;;;;;5028700;28;20012;-71
2021/06/28 00:09:17;;;;;;;;;;;22.50;99.90;;;;;;5027896;28;19960;-72
2021/06/28 00:11:44;;;;;;;;;;;22.50;99.90;;;;;;5025485;28;20024;-71
2021/06/28 00:14:11;;;;;;;;;;;22.50;99.90;;;;;;5019974;28;19953;-71
2021/06/28 00:16:37;;;;;;;;;;;22.50;99.90;;;;;;5055993;28;20359;-70
2021/06/28 00:19:04;;;;;;;;;;;22.40;99.90;;;;;;5026164;28;19929;-72
2021/06/28 00:21:31;;;;;;;;;;;22.30;99.90;;;;;;5027207;28;19925;-71
2021/06/28 00:23:58;;;;;;;;;;;22.20;99.90;;;;;;5041987;28;20360;-71
2021/06/28 00:26:25;;;;;;;;;;;22.20;99.90;;;;;;5027711;28;19983;-71
2021/06/28 00:28:52;;;;;;;;;;;22.00;99.90;;;;;;5025503;28;20360;-72
2021/06/28 00:31:18;;;;;;;;;;;21.90;99.90;;;;;;5028018;28;20383;-72
2021/06/28 00:33:45;;;;;;;;;;;21.90;99.90;;;;;;5024779;28;19925;-72
2021/06/28 00:36:12;;;;;;;;;;;21.90;99.90;;;;;;5043813;28;20284;-70
2021/06/28 00:38:39;;;;;;;;;;;21.80;99.90;;;;;;5026179;28;19987;-73
2021/06/28 00:41:06;;;;;;;;;;;22.00;99.90;;;;;;5029017;28;19948;-71
2021/06/28 00:43:33;;;;;;;;;;;22.00;99.90;;;;;;5025713;28;20109;-71
2021/06/28 00:46:00;;;;;;;;;;;22.00;99.90;;;;;;5024872;28;20036;-71
2021/06/28 00:48:26;;;;;;;;;;;21.80;99.90;;;;;;5041361;28;19941;-72
2021/06/28 00:50:54;;;;;;;;;;;21.90;99.90;;;;;;5022899;28;19930;-71
2021/06/28 00:53:22;;;;;;;;;;;22.00;99.90;;;;;;5028585;28;19925;-73
2021/06/28 00:55:50;;;;;;;;;;;22.10;99.90;;;;;;5028145;28;19957;-72
2021/06/28 00:58:17;;;;;;;;;;;22.00;99.90;;;;;;5025649;28;19925;-72
2021/06/28 01:00:44;;;;;;;;;;;22.00;99.90;;;;;;5029744;28;19929;-70
2021/06/28 01:03:11;;;;;;;;;;;21.90;99.90;;;;;;5026085;28;19995;-70
2021/06/28 01:05:39;;;;;;;;;;;21.80;99.90;;;;;;5027205;28;19960;-69
2021/06/28 01:08:07;;;;;;;;;;;21.80;99.90;;;;;;5026649;28;19947;-70
2021/06/28 01:10:35;;;;;;;;;;;21.90;99.90;;;;;;5024814;28;19929;-71
2021/06/28 01:13:02;;;;;;;;;;;21.70;99.90;;;;;;5024330;28;20518;-71
2021/06/28 01:15:28;;;;;;;;;;;21.80;99.90;;;;;;5029350;28;19925;-71
2021/06/28 01:17:55;;;;;;;;;;;21.80;99.90;;;;;;5028433;28;20383;-70
2021/06/28 01:20:23;;;;;;;;;;;21.90;99.90;;;;;;5025642;28;20386;-71
2021/06/28 01:22:52;;;;;;;;;;;22.00;99.90;;;;;;5029599;28;19983;-72
2021/06/28 01:25:21;;;;;;;;;;;21.90;99.90;;;;;;5030803;28;19976;-71
2021/06/28 01:27:48;;;;;;;;;;;21.90;99.90;;;;;;5027602;28;19971;-71
2021/06/28 01:30:16;;;;;;;;;;;21.90;99.90;;;;;;5031475;28;20029;-70
2021/06/28 01:32:44;;;;;;;;;;;22.00;99.90;;;;;;5042606;28;20443;-71
2021/06/28 01:35:12;;;;;;;;;;;21.90;99.90;;;;;;5028336;28;19932;-71
2021/06/28 01:37:39;;;;;;;;;;;22.00;99.90;;;;;;5037501;28;19975;-72
2021/06/28 01:40:07;;;;;;;;;;;21.90;99.90;;;;;;5025019;28;19979;-71
2021/06/28 01:42:37;;;;;;;;;;;21.90;99.90;;;;;;5030451;28;19975;-71
2021/06/28 01:45:06;;;;;;;;;;;21.90;99.90;;;;;;5028727;28;20383;-70
2021/06/28 01:47:33;;;;;;;;;;;21.90;99.90;;;;;;5026821;28;20016;-71
2021/06/28 01:49:59;;;;;;;;;;;22.00;99.90;;;;;;5026182;28;20411;-70
2021/06/28 01:52:26;;;;;;;;;;;22.00;99.90;;;;;;5027475;28;19956;-69
2021/06/28 01:54:53;;;;;;;;;;;21.90;99.90;;;;;;5024153;28;20277;-71
2021/06/28 01:57:20;;;;;;;;;;;21.80;99.90;;;;;;5027200;28;20012;-70
2021/06/28 01:59:46;;;;;;;;;;;21.70;99.90;;;;;;5028483;28;19957;-70
2021/06/28 02:02:13;;;;;;;;;;;21.80;99.90;;;;;;5028602;28;19969;-71
2021/06/28 02:04:40;;;;;;;;;;;21.90;99.90;;;;;;5024935;28;19979;-71
2021/06/28 02:07:07;;;;;;;;;;;21.90;99.90;;;;;;5028741;28;19960;-70
2021/06/28 02:09:35;;;;;;;;;;;22.00;99.90;;;;;;5044551;28;19929;-71
2021/06/28 02:12:02;;;;;;;;;;;22.00;99.90;;;;;;5028288;28;20024;-70
2021/06/28 02:14:29;;;;;;;;;;;21.90;99.90;;;;;;5033278;28;20004;-71
2021/06/28 02:16:55;;;;;;;;;;;21.80;99.90;;;;;;5030438;28;19965;-71
2021/06/28 02:19:22;;;;;;;;;;;21.70;99.90;;;;;;5024393;28;19965;-71
2021/06/28 02:21:49;;;;;;;;;;;21.60;99.90;;;;;;5027236;28;20013;-78
2021/06/28 02:24:16;;;;;;;;;;;21.60;99.90;;;;;;5039879;28;20340;-78
2021/06/28 02:26:43;;;;;;;;;;;21.60;99.90;;;;;;5025125;28;19972;-78
2021/06/28 02:29:10;;;;;;;;;;;21.70;99.90;;;;;;5030259;28;20320;-77
2021/06/28 02:31:37;;;;;;;;;;;21.70;99.90;;;;;;5030641;28;19975;-77
2021/06/28 02:34:04;;;;;;;;;;;21.70;99.90;;;;;;5031328;28;19933;-77
2021/06/28 02:36:30;;;;;;;;;;;21.80;99.90;;;;;;5031028;28;19972;-70
2021/06/28 02:38:57;;;;;;;;;;;21.90;99.90;;;;;;5025505;28;20040;-71
2021/06/28 02:41:24;;;;;;;;;;;21.70;99.90;;;;;;5025023;28;19968;-71
2021/06/28 02:43:52;;;;;;;;;;;21.70;99.90;;;;;;5026817;28;19971;-71
2021/06/28 02:46:20;;;;;;;;;;;21.60;99.90;;;;;;5029590;28;19929;-71
2021/06/28 02:48:47;;;;;;;;;;;21.50;99.90;;;;;;5022692;28;20007;-71
2021/06/28 02:51:15;;;;;;;;;;;21.40;99.90;;;;;;5026989;28;20019;-71
2021/06/28 02:53:42;;;;;;;;;;;21.40;99.90;;;;;;5025040;28;19929;-72
2021/06/28 02:56:16;;;;;;;;;;;21.40;99.90;;;;;;5029315;28;19964;-72
2021/06/28 02:58:50;;;;;;;;;;;21.40;99.90;;;;;;5030177;28;20293;-71
2021/06/28 03:01:21;;;;;;;;;;;21.40;99.90;;;;;;5027038;28;19999;-71
2021/06/28 03:03:48;;;;;;;;;;;21.40;99.90;;;;;;5030455;28;19937;-71
2021/06/28 03:06:16;;;;;;;;;;;21.40;99.90;;;;;;5027724;28;20387;-71
2021/06/28 03:08:43;;;;;;;;;;;21.40;99.90;;;;;;5020787;28;19977;-71
2021/06/28 03:11:10;;;;;;;;;;;21.20;99.90;;;;;;5029010;28;20032;-71
2021/06/28 03:13:38;;;;;;;;;;;21.10;99.90;;;;;;5030578;28;20007;-71
2021/06/28 03:16:05;;;;;;;;;;;21.20;99.90;;;;;;5026567;28;20352;-71
2021/06/28 03:18:33;;;;;;;;;;;21.20;99.90;;;;;;5026591;28;20292;-72
2021/06/28 03:21:00;;;;;;;;;;;21.40;99.90;;;;;;5030117;28;20012;-70
2021/06/28 03:23:27;;;;;;;;;;;21.40;99.90;;;;;;5026337;28;19937;-71
2021/06/28 03:25:54;;;;;;;;;;;21.40;99.90;;;;;;5018190;28;20312;-71
2021/06/28 03:28:21;;;;;;;;;;;21.50;99.90;;;;;;5029506;28;20347;-72
2021/06/28 03:30:48;;;;;;;;;;;21.50;99.90;;;;;;5027583;28;20040;-70
2021/06/28 03:33:14;;;;;;;;;;;21.50;99.90;;;;;;5024391;28;20295;-71
2021/06/28 03:35:41;;;;;;;;;;;21.50;99.90;;;;;;5029249;28;19925;-71
2021/06/28 03:38:08;;;;;;;;;;;21.40;99.90;;;;;;5026433;28;19974;-71
2021/06/28 03:40:35;;;;;;;;;;;21.40;99.90;;;;;;5034926;28;19964;-70
2021/06/28 03:43:04;;;;;;;;;;;21.40;99.90;;;;;;5024278;28;19933;-70
2021/06/28 03:45:31;;;;;;;;;;;21.30;99.90;;;;;;5023581;28;19924;-70
2021/06/28 03:47:58;;;;;;;;;;;21.30;99.90;;;;;;5040924;28;20034;-70
2021/06/28 03:50:25;;;;;;;;;;;21.30;99.90;;;;;;5026334;28;19971;-70
2021/06/28 03:52:52;;;;;;;;;;;21.20;99.90;;;;;;5028263;28;19969;-69
2021/06/28 03:55:19;;;;;;;;;;;21.20;99.90;;;;;;5028096;28;20011;-70
2021/06/28 03:57:46;;;;;;;;;;;21.30;99.90;;;;;;5027804;28;19952;-70
2021/06/28 04:00:17;;;;;;;;;;;21.20;99.90;;;;;;5024363;28;20092;-71
2021/06/28 04:02:44;;;;;;;;;;;21.20;99.90;;;;;;5038942;28;20003;-70
2021/06/28 04:05:20;;;;;;;;;;;21.30;99.90;;;;;;5057883;28;20342;-71
2021/06/28 04:07:47;;;;;;;;;;;21.30;99.90;;;;;;5028643;28;19982;-70
2021/06/28 04:10:14;;;;;;;;;;;21.20;99.90;;;;;;5026641;28;19925;-71
2021/06/28 04:12:41;;;;;;;;;;;21.20;99.90;;;;;;5043654;28;19991;-70
2021/06/28 04:15:10;;;;;;;;;;;21.40;99.90;;;;;;5025019;28;19980;-71
2021/06/28 04:17:38;;;;;;;;;;;21.60;99.90;;;;;;5020049;28;19983;-70
2021/06/28 04:20:06;;;;;;;;;;;21.60;99.90;;;;;;5026379;28;19971;-71
2021/06/28 04:22:32;;;;;;;;;;;21.60;99.90;;;;;;5022768;28;20618;-70
2021/06/28 04:24:59;;;;;;;;;;;21.50;99.90;;;;;;5026353;28;20412;-72
2021/06/28 04:27:26;;;;;;;;;;;21.40;99.90;;;;;;5022947;28;19929;-70
2021/06/28 04:29:53;;;;;;;;;;;21.50;99.90;;;;;;5022330;28;19925;-72
2021/06/28 04:32:19;;;;;;;;;;;21.50;99.90;;;;;;5029073;28;20331;-71
2021/06/28 04:34:46;;;;;;;;;;;21.60;99.90;;;;;;5026729;28;20311;-71
2021/06/28 04:37:13;;;;;;;;;;;21.70;99.90;;;;;;5026198;28;19960;-71
2021/06/28 04:39:40;;;;;;;;;;;21.80;99.90;;;;;;5028244;28;19980;-70
2021/06/28 04:42:07;;;;;;;;;;;21.80;99.90;;;;;;5028467;28;19925;-71
2021/06/28 04:44:34;;;;;;;;;;;21.70;99.90;;;;;;5028980;28;19925;-78
2021/06/28 04:47:00;;;;;;;;;;;21.70;99.90;;;;;;5027053;28;20383;-77
2021/06/28 04:49:27;;;;;;;;;;;21.70;99.90;;;;;;5027045;28;19933;-77
2021/06/28 04:51:54;;;;;;;;;;;21.80;99.90;;;;;;5024267;28;19971;-78
2021/06/28 04:54:20;;;;;;;;;;;21.80;99.90;;;;;;5028377;28;19971;-77
2021/06/28 04:56:47;;;;;;;;;;;21.90;99.90;;;;;;5026539;28;19969;-78
2021/06/28 04:59:16;;;;;;;;;;;21.90;99.90;;;;;;5026455;28;19964;-77
2021/06/28 05:01:43;;;;;;;;;;;21.90;99.90;;;;;;5027283;28;19926;-79
2021/06/28 05:04:10;;;;;;;;;;;22.00;99.90;;;;;;5029708;28;20411;-78
2021/06/28 05:06:37;;;;;;;;;;;22.10;99.90;;;;;;5031491;28;19967;-79
2021/06/28 05:09:04;;;;;;;;;;;22.10;99.90;;;;;;5031824;28;20012;-78
2021/06/28 05:11:30;;;;;;;;;;;22.50;99.90;;;;;;5032283;28;20387;-78
2021/06/28 05:13:57;;;;;;;;;;;22.80;99.90;;;;;;5024195;28;20315;-78
2021/06/28 05:16:24;;;;;;;;;;;22.80;99.90;;;;;;5033535;28;20059;-77
2021/06/28 05:18:51;;;;;;;;;;;24.00;99.90;;;;;;5030147;28;19925;-78
2021/06/28 05:21:17;;;;;;;;;;;23.90;99.90;;;;;;5032302;28;19979;-78
2021/06/28 05:23:44;;;;;;;;;;;24.10;99.90;;;;;;5029028;28;19926;-80
2021/06/28 05:26:11;;;;;;;;;;;25.00;99.90;;;;;;5026663;28;19925;-79
2021/06/28 05:28:38;;;;;;;;;;;24.30;99.90;;;;;;5032214;28;19960;-74
2021/06/28 05:31:05;;;;;;;;;;;24.10;99.90;;;;;;5031134;28;19929;-78
2021/06/28 05:33:31;;;;;;;;;;;23.90;99.90;;;;;;5030428;28;19992;-78
2021/06/28 05:35:58;;;;;;;;;;;25.10;99.90;;;;;;5028662;28;19979;-79
2021/06/28 05:38:25;;;;;;;;;;;24.80;99.90;;;;;;5044989;28;19989;-77
2021/06/28 05:40:52;;;;;;;;;;;27.10;99.90;;;;;;5030226;28;19925;-79
2021/06/28 05:43:18;;;;;;;;;;;27.10;98.50;;;;;;5031564;28;20352;-78
2021/06/28 05:45:45;;;;;;;;;;;27.00;98.20;;;;;;5029232;28;19926;-76
2021/06/28 05:48:12;;;;;;;;;;;26.60;97.40;;;;;;5025159;28;19968;-78
2021/06/28 05:50:39;;;;;;;;;;;25.30;99.80;;;;;;5025233;28;19972;-78
2021/06/28 05:53:06;;;;;;;;;;;24.50;99.90;;;;;;5031292;28;19967;-78
2021/06/28 05:55:33;;;;;;;;;;;24.10;99.90;;;;;;5031851;28;19925;-79
2021/06/28 05:58:00;;;;;;;;;;;23.90;99.90;;;;;;5022093;28;19944;-72
2021/06/28 06:00:29;;;;;;;;;;;23.50;99.90;;;;;;5013316;28;19941;-71
2021/06/28 06:02:56;;;;;;;;;;;23.20;99.90;;;;;;5047173;28;20060;-70
2021/06/28 06:05:23;;;;;;;;;;;23.20;99.90;;;;;;5011973;28;19929;-71
2021/06/28 06:07:50;;;;;;;;;;;23.50;99.90;;;;;;5013812;28;20012;-69
2021/06/28 06:10:17;;;;;;;;;;;23.30;99.90;;;;;;5013398;28;19976;-69
2021/06/28 06:12:47;;;;;;;;;;;22.90;99.90;;;;;;5013983;28;19933;-70
2021/06/28 06:15:14;;;;;;;;;;;23.00;99.90;;;;;;5012846;28;19933;-70
2021/06/28 06:17:41;;;;;;;;;;;23.00;99.90;;;;;;5014886;28;20020;-70
2021/06/28 06:20:08;;;;;;;;;;;23.10;99.90;;;;;;5013875;28;19929;-71
2021/06/28 06:22:35;;;;;;;;;;;23.10;99.90;;;;;;5013873;28;20020;-72
2021/06/28 06:25:02;;;;;;;;;;;23.50;99.90;;;;;;5011651;28;19933;-72
2021/06/28 06:27:29;;;;;;;;;;;23.70;99.90;;;;;;5013391;28;19932;-72
2021/06/28 06:29:57;;;;;;;;;;;23.70;99.90;;;;;;5014048;28;20387;-73
2021/06/28 06:32:24;;;;;;;;;;;23.60;99.90;;;;;;5013863;28;20014;-71
2021/06/28 06:34:51;;;;;;;;;;;24.50;99.90;;;;;;5012639;28;19939;-71
2021/06/28 06:37:18;;;;;;;;;;;24.60;99.90;;;;;;5013836;28;19977;-71
2021/06/28 06:39:45;;;;;;;;;;;24.30;99.90;;;;;;5012741;28;20016;-71
2021/06/28 06:42:15;;;;;;;;;;;24.30;99.90;;;;;;5012623;28;19929;-70
2021/06/28 06:44:42;;;;;;;;;;;24.80;99.90;;;;;;5013249;28;19933;-71
2021/06/28 06:47:09;;;;;;;;;;;24.30;99.90;;;;;;5013481;28;19929;-71
2021/06/28 06:49:36;;;;;;;;;;;25.30;99.90;;;;;;5012820;28;19944;-72
2021/06/28 06:52:03;;;;;;;;;;;26.00;99.90;;;;;;5012535;28;19980;-70
2021/06/28 06:54:29;;;;;;;;;;;28.60;94.40;;;;;;5011056;28;19933;-70
2021/06/28 06:56:56;;;;;;;;;;;28.20;92.00;;;;;;5013685;28;19960;-70
2021/06/28 06:59:23;;;;;;;;;;;26.20;96.80;;;;;;5013103;28;19929;-71
2021/06/28 07:01:49;;;;;;;;;;;25.00;99.90;;;;;;5012276;28;20455;-78
2021/06/28 07:04:18;;;;;;;;;;;24.60;99.90;;;;;;5013940;28;19929;-78
2021/06/28 07:06:44;;;;;;;;;;;24.30;99.90;;;;;;5011804;28;19933;-78
2021/06/28 07:09:14;;;;;;;;;;;24.10;99.90;;;;;;5013106;28;19933;-76
2021/06/28 07:11:40;;;;;;;;;;;24.20;99.90;;;;;;5027929;28;19973;-75
2021/06/28 07:14:07;;;;;;;;;;;24.40;99.90;;;;;;5014777;28;20317;-78
2021/06/28 07:16:34;;;;;;;;;;;24.40;99.90;;;;;;5012414;28;19940;-77
2021/06/28 07:19:03;;;;;;;;;;;24.50;99.90;;;;;;5012788;28;19930;-77
2021/06/28 07:21:32;;;;;;;;;;;24.70;99.90;;;;;;5011175;28;19998;-78
2021/06/28 07:24:01;;;;;;;;;;;26.20;99.90;;;;;;5011714;28;21574;-80
2021/06/28 07:26:28;;;;;;;;;;;25.80;99.90;;;;;;5011680;28;19972;-79
2021/06/28 07:28:55;;;;;;;;;;;26.00;99.90;;;;;;5012632;28;20319;-79
2021/06/28 07:31:22;;;;;;;;;;;25.90;99.60;;;;;;5043895;28;19999;-76
2021/06/28 07:33:49;;;;;;;;;;;25.70;99.60;;;;;;5013876;28;19952;-78
2021/06/28 07:36:15;;;;;;;;;;;25.10;99.90;;;;;;5015474;28;20024;-78
2021/06/28 07:38:42;;;;;;;;;;;24.70;99.90;;;;;;5027026;28;20427;-78
2021/06/28 07:41:09;;;;;;;;;;;24.80;99.90;;;;;;5012751;28;20425;-79
2021/06/28 07:43:36;;;;;;;;;;;24.80;99.90;;;;;;5027663;28;19976;-76
2021/06/28 07:46:04;;;;;;;;;;;25.10;99.90;;;;;;5013169;28;19977;-76
2021/06/28 07:48:31;;;;;;;;;;;25.00;99.90;;;;;;5010895;28;19940;-78
2021/06/28 07:50:58;;;;;;;;;;;25.00;99.90;;;;;;5013394;28;20388;-76
2021/06/28 07:53:25;;;;;;;;;;;25.00;99.90;;;;;;5013093;28;19937;-75
2021/06/28 07:55:51;;;;;;;;;;;25.10;99.90;;;;;;5013752;28;20051;-74
2021/06/28 07:58:18;;;;;;;;;;;25.10;99.90;;;;;;5014761;28;19933;-78
2021/06/28 08:00:45;;;;;;;;;;;25.30;99.90;;;;;;5013188;28;19948;-78
2021/06/28 08:03:12;;;;;;;;;;;25.20;99.90;;;;;;5012671;28;19968;-75
2021/06/28 08:05:40;;;;;;;;;;;25.20;99.90;;;;;;5011497;28;20052;-76
2021/06/28 08:08:07;;;;;;;;;;;25.00;99.90;;;;;;5011522;28;20377;-79
2021/06/28 08:10:34;;;;;;;;;;;25.00;99.90;;;;;;5013132;28;19933;-76
2021/06/28 08:13:01;;;;;;;;;;;25.20;99.90;;;;;;5012064;28;20386;-75
2021/06/28 08:15:28;;;;;;;;;;;25.20;99.90;;;;;;5012524;28;19976;-77
2021/06/28 08:17:55;;;;;;;;;;;25.10;99.90;;;;;;5009225;28;20584;-74
2021/06/28 08:20:22;;;;;;;;;;;24.90;99.90;;;;;;5027405;28;19940;-75
2021/06/28 08:22:49;;;;;;;;;;;25.00;99.90;;;;;;5011725;28;19976;-76
2021/06/28 08:25:16;;;;;;;;;;;25.10;99.90;;;;;;5012397;28;19929;-76
2021/06/28 08:27:44;;;;;;;;;;;25.10;99.90;;;;;;5025931;28;19986;-76
2021/06/28 08:30:11;;;;;;;;;;;25.20;99.90;;;;;;5012394;28;20569;-75
2021/06/28 08:32:40;;;;;;;;;;;25.40;99.90;;;;;;5010785;28;19937;-74
2021/06/28 08:35:07;;;;;;;;;;;25.40;99.90;;;;;;5012560;28;19994;-76
2021/06/28 08:37:34;;;;;;;;;;;25.50;99.90;;;;;;5010391;28;20303;-76
2021/06/28 08:40:00;;;;;;;;;;;25.20;99.90;;;;;;5011348;28;19940;-76
2021/06/28 08:42:27;;;;;;;;;;;25.30;99.90;;;;;;5012652;28;20015;-77
2021/06/28 08:44:54;;;;;;;;;;;25.40;99.90;;;;;;5014375;28;20016;-77
2021/06/28 08:47:21;;;;;;;;;;;25.40;99.90;;;;;;5009980;28;19933;-74
2021/06/28 08:49:48;;;;;;;;;;;25.40;99.20;;;;;;5010454;28;20036;-76
2021/06/28 08:52:17;;;;;;;;;;;25.30;98.90;;;;;;5010232;28;19997;-75
2021/06/28 08:54:44;;;;;;;;;;;25.00;99.90;;;;;;5009953;28;20035;-75
2021/06/28 08:57:11;;;;;;;;;;;24.90;99.90;;;;;;5009831;28;20020;-76
2021/06/28 08:59:39;;;;;;;;;;;24.80;99.90;;;;;;5011371;28;20355;-71
2021/06/28 09:02:06;;;;;;;;;;;24.70;99.90;;;;;;5020423;28;19939;-72
2021/06/28 09:04:33;;;;;;;;;;;24.70;99.90;;;;;;5023163;28;19933;-71
2021/06/28 09:07:15;;;;;;;;;;;24.80;99.90;;;;;;5021889;28;19933;-76
2021/06/28 09:09:42;;;;;;;;;;;24.80;99.90;;;;;;5021365;28;20060;-76
2021/06/28 09:12:13;;;;;;;;;;;24.90;99.90;;;;;;5023576;28;20309;-77
2021/06/28 09:14:46;;;;;;;;;;;24.90;99.90;;;;;;5022442;28;19984;-76
2021/06/28 09:17:48;;;;;;;;;;;24.80;99.90;;;;;;5021816;28;20000;-76
2021/06/28 09:20:15;;;;;;;;;;;24.70;99.90;;;;;;5008922;28;19933;-78
2021/06/28 09:22:43;;;;;;;;;;;24.60;99.90;;;;;;5015857;28;20015;-77
2021/06/28 09:25:27;;;;;;;;;;;24.80;99.90;;;;;;5021412;28;19969;-76
2021/06/28 09:27:54;;;;;;;;;;;25.00;99.90;;;;;;5022344;28;20072;-78
2021/06/28 09:30:22;;;;;;;;;;;25.00;99.90;;;;;;5016491;28;20029;-76
2021/06/28 09:32:50;;;;;;;;;;;25.10;99.90;;;;;;5040692;28;20404;-77
2021/06/28 09:35:26;;;;;;;;;;;25.10;99.90;;;;;;5022081;28;20760;-78
2021/06/28 09:37:53;;;;;;;;;;;25.10;99.90;;;;;;5021113;28;20348;-78
2021/06/28 09:40:24;;;;;;;;;;;25.00;99.90;;;;;;5021515;28;19995;-74
2021/06/28 09:42:50;;;;;;;;;;;24.90;99.90;;;;;;5023542;28;20015;-76
2021/06/28 09:45:18;;;;;;;;;;;24.90;99.90;;;;;;5025733;28;19960;-76
2021/06/28 09:47:44;;;;;;;;;;;24.90;99.90;;;;;;5025176;28;20646;-77
2021/06/28 09:50:16;;;;;;;;;;;24.90;99.90;;;;;;5054828;28;20499;-78
2021/06/28 09:52:45;;;;;;;;;;;25.00;99.90;;;;;;5026935;28;20013;-77
2021/06/28 09:55:15;;;;;;;;;;;25.00;99.90;;;;;;5025504;28;19995;-76
2021/06/28 09:58:00;;;;;;;;;;;25.00;99.90;;;;;;5027155;28;19929;-77
2021/06/28 10:00:28;;;;;;;;;;;24.90;99.90;;;;;;5023817;28;19929;-77
2021/06/28 10:02:54;;;;;;;;;;;24.80;99.90;;;;;;5025990;28;20023;-72
2021/06/28 10:05:29;;;;;;;;;;;24.90;99.90;;;;;;5023619;28;20337;-77
2021/06/28 10:07:56;;;;;;;;;;;24.90;99.90;;;;;;5025366;28;20386;-78
2021/06/28 10:10:24;;;;;;;;;;;25.10;99.90;;;;;;5022530;28;19937;-75
2021/06/28 10:12:53;;;;;;;;;;;25.20;99.90;;;;;;5023807;28;20020;-77
2021/06/28 10:15:21;;;;;;;;;;;25.10;99.90;;;;;;5024901;28;20001;-76
2021/06/28 10:17:49;;;;;;;;;;;25.30;99.90;;;;;;5022921;28;20015;-76
2021/06/28 10:20:17;;;;;;;;;;;25.50;99.90;;;;;;5025422;28;19933;-77
2021/06/28 10:22:45;;;;;;;;;;;25.60;99.90;;;;;;5024555;28;20536;-77
2021/06/28 10:25:14;;;;;;;;;;;25.60;99.80;;;;;;5024491;28;23377;-76
2021/06/28 10:27:41;;;;;;;;;;;25.80;99.70;;;;;;5034076;28;20067;-75
2021/06/28 10:30:10;;;;;;;;;;;26.00;99.20;;;;;;5023531;28;20036;-75
2021/06/28 10:32:37;;;;;;;;;;;26.10;99.30;;;;;;5025147;28;19937;-75
2021/06/28 10:35:05;;;;;;;;;;;26.30;98.80;;;;;;5024000;28;19960;-77
2021/06/28 10:37:37;;;;;;;;;;;26.10;98.70;;;;;;5023656;28;19964;-78
2021/06/28 10:40:08;;;;;;;;;;;25.90;98.80;;;;;;5022812;28;19979;-76
2021/06/28 10:42:38;;;;;;;;;;;26.00;98.50;;;;;;5024396;28;19933;-78
2021/06/28 10:45:06;;;;;;;;;;;26.10;98.40;;;;;;5037296;28;20318;-77
2021/06/28 10:47:33;;;;;;;;;;;26.20;97.70;;;;;;5023801;28;19933;-76
2021/06/28 10:50:00;;;;;;;;;;;26.20;97.80;;;;;;5021909;28;20028;-74
2021/06/28 10:52:33;;;;;;;;;;;26.30;96.30;;;;;;5025226;28;19937;-77
2021/06/28 10:55:02;;;;;;;;;;;26.40;96.50;;;;;;5021464;28;20388;-77
2021/06/28 10:57:44;;;;;;;;;;;26.30;96.00;;;;;;5024884;28;19987;-79
2021/06/28 11:00:12;;;;;;;;;;;26.30;96.30;;;;;;5020430;28;19928;-82
2021/06/28 11:02:40;;;;;;;;;;;26.30;95.70;;;;;;5023375;28;20445;-73
2021/06/28 11:05:07;;;;;;;;;;;26.30;95.70;;;;;;5024675;28;19948;-75
2021/06/28 11:07:45;;;;;;;;;;;26.50;96.10;;;;;;5024737;28;20003;-75
2021/06/28 11:10:13;;;;;;;;;;;26.30;93.70;;;;;;5022146;28;19987;-76
2021/06/28 11:12:40;;;;;;;;;;;26.20;94.20;;;;;;5025860;28;19925;-75
2021/06/28 11:15:19;;;;;;;;;;;26.50;94.30;;;;;;5023274;28;19933;-74
2021/06/28 11:17:50;;;;;;;;;;;26.50;94.90;;;;;;5024453;28;19936;-74
2021/06/28 11:20:20;;;;;;;;;;;26.70;94.60;;;;;;5024413;28;20312;-74
2021/06/28 11:23:07;;;;;;;;;;;26.80;92.60;;;;;;5052976;28;20018;-74
2021/06/28 11:25:36;;;;;;;;;;;27.00;92.60;;;;;;5017137;28;19929;-77
2021/06/28 11:28:02;;;;;;;;;;;27.10;90.60;;;;;;5021977;28;19933;-74
2021/06/28 11:30:30;;;;;;;;;;;27.00;91.70;;;;;;5021342;28;20112;-76
2021/06/28 11:32:57;;;;;;;;;;;27.10;92.40;;;;;;5022290;28;19972;-76
2021/06/28 11:35:50;;;;;;;;;;;27.30;92.00;;;;;;5024218;28;20071;-79
2021/06/28 11:38:17;;;;;;;;;;;27.40;90.40;;;;;;5023719;28;20698;-74
2021/06/28 11:40:45;;;;;;;;;;;27.60;86.80;;;;;;5024874;28;19941;-71
2021/06/28 11:43:12;;;;;;;;;;;27.70;86.10;;;;;;5020034;28;19933;-70
2021/06/28 11:45:46;;;;;;;;;;;27.70;85.90;;;;;;5020582;28;20024;-71
2021/06/28 11:48:30;;;;;;;;;;;27.60;91.70;;;;;;5021601;28;19960;-70
2021/06/28 11:50:57;;;;;;;;;;;27.50;84.30;;;;;;5022787;28;20420;-70
2021/06/28 11:53:23;;;;;;;;;;;27.50;87.40;;;;;;5023031;28;19965;-70
2021/06/28 11:55:50;;;;;;;;;;;27.90;89.90;;;;;;5022494;28;19929;-71
2021/06/28 11:58:21;;;;;;;;;;;27.60;91.00;;;;;;5021905;28;19933;-70
2021/06/28 12:00:50;;;;;;;;;;;27.50;87.60;;;;;;5020433;28;19948;-71
2021/06/28 12:03:29;;;;;;;;;;;27.80;80.60;;;;;;5020307;28;19943;-71
2021/06/28 12:06:05;;;;;;;;;;;27.90;78.00;;;;;;5021606;28;19933;-70
2021/06/28 12:08:31;;;;;;;;;;;27.80;78.10;;;;;;5019888;28;20048;-70
2021/06/28 12:10:59;;;;;;;;;;;27.70;75.80;;;;;;5022007;28;20346;-71
2021/06/28 12:13:36;;;;;;;;;;;27.80;73.50;;;;;;5023792;28;20434;-71
2021/06/28 12:16:12;;;;;;;;;;;28.00;73.00;;;;;;5034634;28;19929;-70
2021/06/28 12:18:39;;;;;;;;;;;28.10;79.60;;;;;;5021559;28;20018;-72
2021/06/28 12:21:06;;;;;;;;;;;28.50;77.40;;;;;;5023583;28;20336;-71
2021/06/28 12:23:32;;;;;;;;;;;29.50;74.20;;;;;;5022181;28;20352;-72
2021/06/28 12:26:09;;;;;;;;;;;30.60;69.90;;;;;;5023027;28;19968;-72
2021/06/28 12:28:36;;;;;;;;;;;31.70;61.20;;;;;;5022761;28;19940;-71
2021/06/28 12:31:12;;;;;;;;;;;33.70;56.70;;;;;;5020201;28;20396;-72
2021/06/28 12:33:39;;;;;;;;;;;35.10;54.00;;;;;;5023388;28;19972;-71
2021/06/28 12:36:06;;;;;;;;;;;36.40;49.20;;;;;;5022524;28;20471;-72
2021/06/28 12:38:32;;;;;;;;;;;38.40;43.80;;;;;;5022377;28;20025;-70
2021/06/28 12:41:02;;;;;;;;;;;37.00;42.70;;;;;;5023410;28;19973;-71
2021/06/28 12:43:31;;;;;;;;;;;37.10;42.00;;;;;;5017459;28;19933;-71
2021/06/28 12:45:59;;;;;;;;;;;36.60;43.30;;;;;;5021806;28;19940;-71
2021/06/28 12:48:27;;;;;;;;;;;37.50;41.10;;;;;;5019896;28;19979;-71
2021/06/28 12:50:54;;;;;;;;;;;38.50;39.80;;;;;;5020830;28;20039;-70
2021/06/28 12:53:21;;;;;;;;;;;36.20;41.80;;;;;;5020654;28;19940;-71
2021/06/28 12:55:49;;;;;;;;;;;36.10;43.60;;;;;;5019882;28;20730;-71
2021/06/28 12:58:17;;;;;;;;;;;35.10;45.00;;;;;;5021916;28;20340;-72
2021/06/28 13:00:51;;;;;;;;;;;35.30;45.80;;;;;;5034660;28;20352;-71
2021/06/28 13:03:19;;;;;;;;;;;33.90;47.10;;;;;;5017306;28;20350;-71
2021/06/28 13:05:52;;;;;;;;;;;33.60;47.50;;;;;;5021468;28;19968;-71
2021/06/28 13:08:19;;;;;;;;;;;33.10;48.30;;;;;;5021145;28;20007;-71
2021/06/28 13:10:55;;;;;;;;;;;33.20;48.00;;;;;;5034850;28;20060;-74
2021/06/28 13:13:23;;;;;;;;;;;32.80;48.90;;;;;;5022175;28;20608;-73
2021/06/28 13:16:25;;;;;;;;;;;32.50;50.00;;;;;;5021218;28;19939;-73
2021/06/28 13:18:53;;;;;;;;;;;31.40;52.00;;;;;;5012283;28;20020;-74
2021/06/28 13:21:20;;;;;;;;;;;30.40;50.90;;;;;;5023789;28;20054;-73
2021/06/28 13:23:48;;;;;;;;;;;30.10;53.40;;;;;;5022275;28;20328;-73
2021/06/28 13:26:22;;;;;;;;;;;29.70;53.70;;;;;;5023606;28;19933;-74
2021/06/28 13:28:50;;;;;;;;;;;29.70;55.00;;;;;;5022535;28;20003;-74
2021/06/28 13:31:18;;;;;;;;;;;29.20;54.10;;;;;;5019185;28;20192;-73
2021/06/28 13:34:01;;;;;;;;;;;29.10;57.00;;;;;;5022550;28;20352;-73
2021/06/28 13:36:27;;;;;;;;;;;28.80;58.20;;;;;;5025653;28;20466;-73
2021/06/28 13:38:54;;;;;;;;;;;29.00;58.00;;;;;;5025344;28;19972;-73
2021/06/28 13:41:21;;;;;;;;;;;29.40;57.50;;;;;;5024274;28;20027;-74
2021/06/28 13:43:48;;;;;;;;;;;29.00;57.90;;;;;;5023771;28;20006;-73
2021/06/28 13:46:25;;;;;;;;;;;28.90;59.10;;;;;;5024401;28;19980;-73
2021/06/28 13:48:52;;;;;;;;;;;28.80;59.80;;;;;;5024335;28;19933;-73
2021/06/28 13:51:19;;;;;;;;;;;29.10;60.00;;;;;;5026212;28;20540;-74
2021/06/28 13:53:46;;;;;;;;;;;29.80;58.10;;;;;;5023503;28;19940;-74
2021/06/28 13:56:15;;;;;;;;;;;29.60;58.20;;;;;;5024782;28;19939;-74
2021/06/28 13:58:43;;;;;;;;;;;29.20;59.20;;;;;;5020147;28;19980;-73
2021/06/28 14:01:10;;;;;;;;;;;29.00;59.70;;;;;;5025160;28;20358;-74
2021/06/28 14:03:37;;;;;;;;;;;28.70;57.90;;;;;;5024970;28;20028;-73
2021/06/28 14:06:04;;;;;;;;;;;28.80;59.80;;;;;;5024652;28;19967;-73
2021/06/28 14:08:31;;;;;;;;;;;28.80;61.60;;;;;;5023398;28;19936;-73
2021/06/28 14:10:58;;;;;;;;;;;28.80;62.20;;;;;;5025867;28;19933;-73
2021/06/28 14:13:25;;;;;;;;;;;28.80;62.80;;;;;;5025092;28;19932;-73
2021/06/28 14:15:53;;;;;;;;;;;28.80;62.40;;;;;;5024513;28;20329;-73
2021/06/28 14:18:21;;;;;;;;;;;28.90;61.90;;;;;;5024273;28;20042;-73
2021/06/28 14:20:49;;;;;;;;;;;29.00;62.00;;;;;;5024800;28;20287;-72
2021/06/28 14:23:16;;;;;;;;;;;29.10;57.90;;;;;;5021727;28;19933;-72